Time;durP1;ratioP1;P1;durP2;ratioP2;P2;SDS_P1;SDS_P2;PMS_P1;PMS_P2;Temp;Humidity;BMP_temperature;BMP_pressure;BME280_temperature;BME280_humidity;BME280_pressure;Samples;Min_cycle;Max_cycle;Signal;HPM_P1;HPM_P2
2023/02/23 00:00:07;;;;;;;;;;;;;;;8.41;68.83;99632.31;5092758;28;20374;-37
2023/02/23 00:02:32;;;;;;;;;;;;;;;8.29;69.30;99631.13;5092815;28;19968;-37
2023/02/23 00:04:58;;;;;;;;;;;;;;;8.40;69.03;99629.81;5092799;28;19916;-37
2023/02/23 00:07:23;;;;;;;;;;;;;;;8.35;69.35;99633.00;5092644;28;20516;-36
2023/02/23 00:09:49;;;;;;;;;;;;;;;8.37;69.30;99633.63;5092626;28;19922;-36
2023/02/23 00:12:16;;;;;;;;;;;;;;;8.30;69.46;99640.75;5092816;28;19912;-37
2023/02/23 00:14:42;;;;;;;;;;;;;;;8.55;68.96;99627.91;5092570;28;19917;-37
2023/02/23 00:17:12;;;;;;;;;;;;;;;8.50;68.96;99629.50;5092404;28;19912;-37
2023/02/23 00:19:38;;;;;;;;;;;;;;;8.50;69.08;99626.84;5092545;28;19934;-37
2023/02/23 00:22:03;;;;;;;;;;;;;;;8.68;68.35;99629.00;5086104;28;20358;-37
2023/02/23 00:24:29;;;;;;;;;;;;;;;8.73;67.96;99634.56;5076702;28;19935;-36
2023/02/23 00:26:54;;;;;;;;;;;;;;;8.77;68.16;99633.16;5072150;28;19912;-37
2023/02/23 00:29:21;;;;;;;;;;;;;;;8.69;68.07;99628.81;5070563;28;20387;-37
2023/02/23 00:31:47;;;;;;;;;;;;;;;8.76;67.81;99636.84;5071977;28;19919;-37
2023/02/23 00:34:14;;;;;;;;;;;;;;;8.54;68.66;99628.09;5071851;28;20389;-37
2023/02/23 00:36:39;;;;;;;;;;;;;;;8.51;68.90;99625.81;5071701;28;20272;-35
2023/02/23 00:39:16;;;;;;;;;;;;;;;8.61;68.40;99640.41;5079488;28;19912;-36
2023/02/23 00:41:42;;;;;;;;;;;;;;;8.53;68.68;99634.41;5092098;28;20221;-37
2023/02/23 00:44:07;;;;;;;;;;;;;;;8.39;69.57;99636.09;5092038;28;19931;-35
2023/02/23 00:46:32;;;;;;;;;;;;;;;8.52;68.66;99633.59;5091837;28;19919;-36
2023/02/23 00:48:58;;;;;;;;;;;;;;;8.54;68.97;99634.22;5092277;28;19923;-35
2023/02/23 00:51:29;;;;;;;;;;;;;;;8.50;68.86;99630.31;5092560;28;19922;-37
2023/02/23 00:53:55;;;;;;;;;;;;;;;8.41;69.53;99628.78;5092400;28;19912;-37
2023/02/23 00:56:20;;;;;;;;;;;;;;;8.34;69.90;99631.38;5092784;28;19912;-36
2023/02/23 00:58:46;;;;;;;;;;;;;;;8.40;69.67;99633.28;5092779;28;19919;-36
2023/02/23 01:01:12;;;;;;;;;;;;;;;8.28;70.08;99626.84;5092044;28;19935;-36
2023/02/23 01:03:39;;;;;;;;;;;;;;;8.39;70.12;99636.91;5092129;28;19938;-36
2023/02/23 01:06:05;;;;;;;;;;;;;;;8.76;68.87;99631.53;5092135;28;19920;-35
2023/02/23 01:08:31;;;;;;;;;;;;;;;8.45;69.54;99637.19;5092239;28;19962;-36
2023/02/23 01:10:56;;;;;;;;;;;;;;;8.52;69.47;99638.91;5092149;28;20357;-36
2023/02/23 01:13:22;;;;;;;;;;;;;;;8.57;69.28;99640.97;5092087;28;20325;-36
2023/02/23 01:15:48;;;;;;;;;;;;;;;8.43;69.92;99639.22;5092219;28;19912;-36
2023/02/23 01:18:14;;;;;;;;;;;;;;;8.23;70.67;99634.56;5091942;28;19912;-36
2023/02/23 01:20:40;;;;;;;;;;;;;;;8.44;70.26;99639.03;5091739;28;19923;-36
2023/02/23 01:23:06;;;;;;;;;;;;;;;8.49;69.74;99641.94;5090446;28;19912;-36
2023/02/23 01:25:31;;;;;;;;;;;;;;;8.50;69.79;99640.09;5091887;28;19928;-36
2023/02/23 01:27:57;;;;;;;;;;;;;;;8.31;70.25;99639.72;5091900;28;19916;-36
2023/02/23 01:30:22;;;;;;;;;;;;;;;8.32;70.27;99645.84;5091867;28;19912;-36
2023/02/23 01:32:47;;;;;;;;;;;;;;;8.29;70.74;99635.63;5091681;28;20365;-36
2023/02/23 01:35:13;;;;;;;;;;;;;;;8.40;70.41;99645.72;5091905;28;19918;-37
2023/02/23 01:37:40;;;;;;;;;;;;;;;8.30;70.56;99634.59;5091871;28;20359;-37
2023/02/23 01:40:15;;;;;;;;;;;;;;;8.20;70.93;99633.09;5091595;28;19916;-36
2023/02/23 01:42:42;;;;;;;;;;;;;;;8.09;70.96;99640.72;5091596;28;19923;-36
2023/02/23 01:45:20;;;;;;;;;;;;;;;8.37;70.27;99644.25;5091603;28;19921;-37
2023/02/23 01:47:46;;;;;;;;;;;;;;;8.13;70.76;99639.34;5091589;28;19912;-37
2023/02/23 01:50:15;;;;;;;;;;;;;;;8.20;70.50;99643.69;5091352;28;19912;-37
2023/02/23 01:52:41;;;;;;;;;;;;;;;8.11;70.95;99647.50;5091475;28;19919;-37
2023/02/23 01:55:11;;;;;;;;;;;;;;;8.21;70.32;99649.84;5091629;28;20376;-37
2023/02/23 01:57:38;;;;;;;;;;;;;;;7.93;71.72;99642.63;5091631;28;20402;-37
2023/02/23 02:00:13;;;;;;;;;;;;;;;8.01;71.05;99641.69;5091461;28;19912;-36
2023/02/23 02:02:39;;;;;;;;;;;;;;;8.02;70.91;99653.94;5091702;28;19912;-36
2023/02/23 02:05:12;;;;;;;;;;;;;;;8.17;71.03;99645.94;5090905;28;19916;-36
2023/02/23 02:07:38;;;;;;;;;;;;;;;8.15;70.52;99648.75;5091255;28;20287;-37
2023/02/23 02:12:40;;;;;;;;;;;;;;;7.91;71.04;99646.47;5092325;28;19912;-36
2023/02/23 02:15:07;;;;;;;;;;;;;;;7.77;72.09;99650.84;5095636;28;19968;-36
2023/02/23 02:17:57;;;;;;;;;;;;;;;8.15;70.72;99647.94;5095618;28;19912;-36
2023/02/23 02:20:31;;;;;;;;;;;;;;;8.11;70.48;99650.16;5095271;28;19934;-37
2023/02/23 02:22:59;;;;;;;;;;;;;;;8.03;70.75;99651.09;5095933;28;19912;-36
2023/02/23 02:25:42;;;;;;;;;;;;;;;8.11;70.27;99655.47;5094717;28;19946;-36
2023/02/23 02:28:08;;;;;;;;;;;;;;;7.95;70.50;99653.03;5095248;28;19912;-36
2023/02/23 02:30:42;;;;;;;;;;;;;;;7.94;70.68;99651.38;5095067;28;20332;-36
2023/02/23 02:33:31;;;;;;;;;;;;;;;7.87;71.27;99659.28;5094933;28;19912;-36
2023/02/23 02:36:16;;;;;;;;;;;;;;;7.94;70.96;99656.69;5094979;28;19928;-36
2023/02/23 02:38:54;;;;;;;;;;;;;;;7.89;70.65;99654.63;5095238;28;20372;-36
2023/02/23 02:41:34;;;;;;;;;;;;;;;7.98;70.32;99648.19;5094687;28;19970;-36
2023/02/23 02:44:07;;;;;;;;;;;;;;;8.04;70.40;99659.88;5094654;28;20026;-36
2023/02/23 02:46:37;;;;;;;;;;;;;;;8.03;70.38;99658.22;5094460;28;20000;-36
2023/02/23 02:49:05;;;;;;;;;;;;;;;7.98;70.16;99656.13;5094138;28;19912;-36
2023/02/23 02:51:34;;;;;;;;;;;;;;;7.99;70.02;99659.59;5094755;28;19911;-37
2023/02/23 02:54:09;;;;;;;;;;;;;;;8.09;69.67;99668.09;5094810;28;20332;-37
2023/02/23 02:56:39;;;;;;;;;;;;;;;7.86;70.10;99670.88;5094445;28;20437;-36
2023/02/23 04:17:43;;;;;;;;;;;;;;;6.80;74.61;99696.81;5092967;28;20006;-36
2023/02/23 04:20:11;;;;;;;;;;;;;;;6.61;75.90;99696.31;5093054;28;19958;-36
2023/02/23 04:22:36;;;;;;;;;;;;;;;6.78;75.30;99690.88;5094802;28;20391;-35
2023/02/23 04:25:01;;;;;;;;;;;;;;;6.93;74.45;99694.34;5082934;28;19966;-36
2023/02/23 04:27:27;;;;;;;;;;;;;;;7.01;73.92;99696.91;5083452;28;20368;-41
2023/02/23 04:29:52;;;;;;;;;;;;;;;6.89;73.99;99695.69;5084004;28;19977;-42
2023/02/23 04:32:18;;;;;;;;;;;;;;;6.76;75.19;99698.13;5097185;28;19930;-41
2023/02/23 04:34:44;;;;;;;;;;;;;;;6.90;74.39;99697.34;5113407;28;19931;-41
2023/02/23 04:37:09;;;;;;;;;;;;;;;6.78;74.64;99704.91;5112611;28;20390;-42
2023/02/23 04:39:35;;;;;;;;;;;;;;;7.10;73.79;99702.94;5113016;28;19916;-41
2023/02/23 04:42:00;;;;;;;;;;;;;;;7.15;72.27;99708.50;5113207;28;19925;-41
2023/02/23 04:44:25;;;;;;;;;;;;;;;6.73;74.06;99699.31;5113036;28;20366;-41
2023/02/23 04:46:51;;;;;;;;;;;;;;;6.76;73.82;99706.91;5108934;28;19969;-42
2023/02/23 04:49:16;;;;;;;;;;;;;;;6.83;73.96;99705.22;5093169;28;19919;-41
2023/02/23 04:51:41;;;;;;;;;;;;;;;6.55;75.11;99709.41;5092387;28;19935;-42
2023/02/23 04:54:08;;;;;;;;;;;;;;;6.80;73.66;99707.38;5092390;28;19916;-42
2023/02/23 04:56:33;;;;;;;;;;;;;;;6.99;73.32;99717.44;5092284;28;20006;-42
2023/02/23 04:58:59;;;;;;;;;;;;;;;7.03;72.64;99715.25;5100739;28;20410;-41
2023/02/23 05:01:24;;;;;;;;;;;;;;;6.88;73.59;99720.53;5094419;28;19920;-41
2023/02/23 05:03:49;;;;;;;;;;;;;;;6.92;72.59;99713.88;5082561;28;19920;-41
2023/02/23 05:06:15;;;;;;;;;;;;;;;6.70;74.24;99714.72;5077042;28;19912;-41
2023/02/23 05:08:41;;;;;;;;;;;;;;;6.97;78.69;99719.44;5071738;28;19920;-41
2023/02/23 05:11:06;;;;;;;;;;;;;;;7.29;78.08;99722.75;5076926;28;20302;-41
2023/02/23 05:13:32;;;;;;;;;;;;;;;7.59;74.54;99728.84;5071485;28;19912;-42
2023/02/23 05:15:57;;;;;;;;;;;;;;;7.83;70.34;99721.59;5071550;28;20008;-41
2023/02/23 05:18:24;;;;;;;;;;;;;;;7.75;70.15;99729.66;5071389;28;20300;-42
2023/02/23 05:20:49;;;;;;;;;;;;;;;8.11;73.54;99734.13;5071504;28;19919;-41
2023/02/23 05:23:15;;;;;;;;;;;;;;;8.63;71.01;99734.91;5082729;28;19915;-42
2023/02/23 05:25:40;;;;;;;;;;;;;;;9.73;67.71;99738.69;5091362;28;19938;-42
2023/02/23 05:28:06;;;;;;;;;;;;;;;10.37;67.73;99748.91;5091417;28;19912;-42
2023/02/23 05:30:33;;;;;;;;;;;;;;;10.65;61.89;99739.94;5090559;28;20280;-42
2023/02/23 05:32:58;;;;;;;;;;;;;;;8.77;64.68;99745.41;5091201;28;19912;-41
2023/02/23 05:35:23;;;;;;;;;;;;;;;8.16;65.69;99758.25;5091226;28;19919;-44
2023/02/23 05:37:49;;;;;;;;;;;;;;;8.97;66.24;99763.34;5091105;28;19912;-41
2023/02/23 05:40:15;;;;;;;;;;;;;;;8.27;65.68;99762.25;5091550;28;19912;-41
2023/02/23 05:42:40;;;;;;;;;;;;;;;7.12;69.40;99764.47;5091904;28;20390;-42
2023/02/23 05:45:06;;;;;;;;;;;;;;;7.14;71.13;99772.19;5090875;28;19921;-42
2023/02/23 05:47:34;;;;;;;;;;;;;;;7.65;70.41;99777.59;5090184;28;20344;-42
2023/02/23 05:50:00;;;;;;;;;;;;;;;8.31;66.65;99780.25;5090581;28;19935;-41
2023/02/23 05:52:25;;;;;;;;;;;;;;;7.43;69.25;99782.81;5089739;28;20240;-42
2023/02/23 05:54:50;;;;;;;;;;;;;;;7.63;69.51;99787.56;5090617;28;19912;-42
2023/02/23 05:57:16;;;;;;;;;;;;;;;8.17;70.30;99789.06;5090984;28;19940;-42
2023/02/23 05:59:41;;;;;;;;;;;;;;;8.54;66.41;99790.72;5090529;28;19980;-41
2023/02/23 06:02:06;;;;;;;;;;;;;;;8.75;65.20;99797.03;5090718;28;19926;-42
2023/02/23 06:04:32;;;;;;;;;;;;;;;8.39;65.21;99797.88;5091046;28;20476;-42
2023/02/23 06:06:58;;;;;;;;;;;;;;;8.36;65.28;99801.72;5090341;28;20352;-42
2023/02/23 06:09:23;;;;;;;;;;;;;;;8.49;65.85;99806.38;5091007;28;19946;-42
2023/02/23 06:11:48;;;;;;;;;;;;;;;8.64;65.23;99803.66;5090162;28;19942;-42
2023/02/23 06:14:15;;;;;;;;;;;;;;;9.42;62.48;99809.00;5090066;28;20022;-42
2023/02/23 06:16:40;;;;;;;;;;;;;;;9.06;63.46;99811.78;5091354;28;19923;-42
2023/02/23 06:19:06;;;;;;;;;;;;;;;9.07;62.98;99806.28;5090708;28;19994;-42
2023/02/23 06:21:31;;;;;;;;;;;;;;;8.63;65.04;99814.47;5090694;28;20271;-42
2023/02/23 06:23:59;;;;;;;;;;;;;;;8.94;63.55;99812.31;5090142;28;19963;-42
2023/02/23 06:26:24;;;;;;;;;;;;;;;9.09;63.37;99808.75;5090639;28;20006;-42
2023/02/23 06:28:50;;;;;;;;;;;;;;;9.29;62.29;99816.88;5090587;28;19938;-41
2023/02/23 06:31:15;;;;;;;;;;;;;;;9.42;61.83;99811.66;5090467;28;19919;-41
2023/02/23 06:33:40;;;;;;;;;;;;;;;9.44;61.71;99809.63;5090869;28;19993;-42
2023/02/23 06:36:06;;;;;;;;;;;;;;;9.68;61.30;99812.84;5090924;28;19912;-41
2023/02/23 06:38:31;;;;;;;;;;;;;;;9.84;60.50;99814.34;5090283;28;20436;-43
2023/02/23 06:40:56;;;;;;;;;;;;;;;10.45;58.57;99818.91;5090510;28;19999;-42
2023/02/23 06:43:21;;;;;;;;;;;;;;;10.36;59.20;99820.94;5090721;28;20029;-43
2023/02/23 06:45:47;;;;;;;;;;;;;;;10.70;57.11;99820.00;5090415;28;20383;-41
2023/02/23 06:48:12;;;;;;;;;;;;;;;11.13;56.29;99822.28;5086887;28;19912;-43
2023/02/23 06:50:37;;;;;;;;;;;;;;;11.15;56.71;99822.06;5079641;28;19916;-42
2023/02/23 06:53:03;;;;;;;;;;;;;;;11.35;55.40;99828.22;5073567;28;19920;-42
2023/02/23 06:55:29;;;;;;;;;;;;;;;11.59;54.52;99822.44;5073992;28;19912;-43
2023/02/23 06:57:54;;;;;;;;;;;;;;;11.81;54.09;99829.16;5081997;28;19917;-42
2023/02/23 07:00:20;;;;;;;;;;;;;;;11.69;53.88;99826.31;5077503;28;19935;-42
2023/02/23 07:02:45;;;;;;;;;;;;;;;11.67;54.30;99831.06;5082263;28;20012;-42
2023/02/23 07:05:10;;;;;;;;;;;;;;;11.85;53.90;99834.91;5077949;28;19967;-41
2023/02/23 07:07:36;;;;;;;;;;;;;;;12.09;52.14;99831.56;5073634;28;19955;-42
2023/02/23 07:10:01;;;;;;;;;;;;;;;11.48;54.25;99823.88;5076246;28;19970;-42
2023/02/23 07:12:26;;;;;;;;;;;;;;;12.03;52.97;99829.75;5078022;28;19920;-43
2023/02/23 07:14:52;;;;;;;;;;;;;;;12.28;52.49;99840.53;5082596;28;19943;-42
2023/02/23 07:17:17;;;;;;;;;;;;;;;12.37;52.19;99832.25;5080316;28;19916;-44
2023/02/23 07:19:42;;;;;;;;;;;;;;;12.56;51.44;99835.84;5087630;28;19912;-43
2023/02/23 07:22:08;;;;;;;;;;;;;;;12.37;52.18;99837.59;5091684;28;19985;-42
2023/02/23 07:24:33;;;;;;;;;;;;;;;12.51;52.14;99837.31;5091209;28;19996;-41
2023/02/23 07:26:58;;;;;;;;;;;;;;;12.42;51.98;99840.47;5092213;28;19912;-42
2023/02/23 07:29:24;;;;;;;;;;;;;;;11.95;52.32;99834.50;5091774;28;19916;-42
2023/02/23 07:31:49;;;;;;;;;;;;;;;11.43;54.88;99832.50;5091620;28;20391;-43
2023/02/23 07:34:15;;;;;;;;;;;;;;;11.79;53.68;99833.88;5091773;28;19916;-41
2023/02/23 07:36:40;;;;;;;;;;;;;;;11.46;55.04;99834.78;5092010;28;19915;-42
2023/02/23 07:39:06;;;;;;;;;;;;;;;11.78;54.21;99834.09;5092830;28;19934;-41
2023/02/23 07:41:31;;;;;;;;;;;;;;;11.54;54.43;99837.22;5092632;28;19952;-43
2023/02/23 07:43:58;;;;;;;;;;;;;;;11.72;54.92;99831.22;5092854;28;19927;-42
2023/02/23 07:46:23;;;;;;;;;;;;;;;11.76;54.09;99836.16;5092077;28;19912;-42
2023/02/23 07:48:48;;;;;;;;;;;;;;;11.93;53.69;99842.69;5092895;28;19912;-42
2023/02/23 07:51:15;;;;;;;;;;;;;;;11.22;55.29;99836.22;5092875;28;19918;-42
2023/02/23 07:53:41;;;;;;;;;;;;;;;11.54;54.94;99829.22;5091770;28;19915;-42
2023/02/23 07:56:08;;;;;;;;;;;;;;;11.57;54.86;99833.31;5090799;28;19912;-41
2023/02/23 07:58:34;;;;;;;;;;;;;;;10.73;57.04;99842.72;5090851;28;19999;-42
2023/02/23 08:00:59;;;;;;;;;;;;;;;10.82;57.85;99830.88;5090912;28;20007;-41
2023/02/23 08:03:25;;;;;;;;;;;;;;;11.23;56.34;99832.53;5091704;28;19916;-42
2023/02/23 08:05:50;;;;;;;;;;;;;;;11.33;56.69;99824.13;5091903;28;19923;-41
2023/02/23 08:08:15;;;;;;;;;;;;;;;11.93;55.15;99827.50;5092774;28;20280;-42
2023/02/23 08:10:41;;;;;;;;;;;;;;;12.25;53.80;99827.59;5091661;28;19955;-42
2023/02/23 08:13:06;;;;;;;;;;;;;;;12.37;53.83;99827.72;5092435;28;19919;-42
2023/02/23 08:15:31;;;;;;;;;;;;;;;12.95;52.63;99829.44;5092554;28;20348;-42
2023/02/23 08:17:57;;;;;;;;;;;;;;;12.42;53.56;99822.59;5092349;28;20423;-42
2023/02/23 08:20:22;;;;;;;;;;;;;;;12.25;53.83;99816.91;5092295;28;19916;-42
2023/02/23 08:22:52;;;;;;;;;;;;;;;12.87;52.97;99825.19;5092735;28;20287;-42
2023/02/23 08:25:17;;;;;;;;;;;;;;;13.52;50.99;99816.03;5091638;28;19939;-42
2023/02/23 08:27:42;;;;;;;;;;;;;;;13.49;51.09;99830.66;5092484;28;19912;-42
2023/02/23 08:30:08;;;;;;;;;;;;;;;13.24;51.71;99830.66;5092232;28;19912;-42
2023/02/23 08:32:34;;;;;;;;;;;;;;;12.93;52.34;99834.19;5092787;28;19912;-42
2023/02/23 08:35:01;;;;;;;;;;;;;;;12.32;54.26;99844.41;5092299;28;19912;-41
2023/02/23 08:37:28;;;;;;;;;;;;;;;12.38;54.38;99829.38;5092270;28;19919;-41
2023/02/23 08:39:53;;;;;;;;;;;;;;;13.19;52.38;99829.66;5092567;28;19912;-43
2023/02/23 08:42:18;;;;;;;;;;;;;;;13.27;51.67;99829.41;5092535;28;20330;-41
2023/02/23 08:44:43;;;;;;;;;;;;;;;13.68;51.10;99822.66;5091853;28;19926;-43
2023/02/23 08:47:09;;;;;;;;;;;;;;;13.36;51.62;99829.97;5091817;28;19961;-42
2023/02/23 08:49:34;;;;;;;;;;;;;;;13.17;52.15;99832.56;5091789;28;20388;-42
2023/02/23 08:51:59;;;;;;;;;;;;;;;13.50;51.24;99831.50;5091925;28;19917;-42
2023/02/23 08:54:25;;;;;;;;;;;;;;;13.17;51.69;99835.22;5092330;28;19991;-42
2023/02/23 08:56:54;;;;;;;;;;;;;;;12.95;52.52;99836.66;5091685;28;19916;-43
2023/02/23 08:59:19;;;;;;;;;;;;;;;13.08;52.25;99833.88;5091756;28;19912;-44
2023/02/23 09:01:44;;;;;;;;;;;;;;;13.05;52.16;99829.78;5091961;28;20358;-43
2023/02/23 09:04:09;;;;;;;;;;;;;;;13.22;51.92;99838.06;5091531;28;19916;-43
2023/02/23 09:06:35;;;;;;;;;;;;;;;13.05;52.79;99835.13;5091514;28;20351;-42
2023/02/23 09:09:01;;;;;;;;;;;;;;;12.75;53.16;99839.44;5091300;28;20006;-42
2023/02/23 09:11:27;;;;;;;;;;;;;;;12.97;52.89;99830.06;5091532;28;19912;-42
2023/02/23 09:13:52;;;;;;;;;;;;;;;13.30;52.31;99835.13;5091681;28;19919;-42
2023/02/23 09:16:17;;;;;;;;;;;;;;;13.46;51.51;99822.25;5091833;28;19916;-42
2023/02/23 09:18:43;;;;;;;;;;;;;;;13.22;52.25;99832.72;5091430;28;19912;-42
2023/02/23 09:21:17;;;;;;;;;;;;;;;13.25;52.94;99831.47;5091726;28;19919;-43
2023/02/23 09:23:43;;;;;;;;;;;;;;;13.16;52.50;99840.81;5091224;28;19988;-42
2023/02/23 09:26:09;;;;;;;;;;;;;;;13.17;52.80;99832.56;5091252;28;19912;-43
2023/02/23 09:28:36;;;;;;;;;;;;;;;13.08;53.17;99832.03;5091376;28;19912;-44
2023/02/23 09:31:09;;;;;;;;;;;;;;;13.01;53.21;99825.91;5091444;28;19912;-42
2023/02/23 09:33:34;;;;;;;;;;;;;;;13.79;51.91;99813.09;5091407;28;19919;-43
2023/02/23 09:36:02;;;;;;;;;;;;;;;13.89;50.40;99829.44;5091294;28;20315;-43
2023/02/23 09:38:29;;;;;;;;;;;;;;;13.80;51.05;99817.38;5091452;28;20382;-43
2023/02/23 09:40:54;;;;;;;;;;;;;;;13.62;51.82;99819.03;5090912;28;19913;-42
2023/02/23 09:43:38;;;;;;;;;;;;;;;13.57;52.08;99810.84;5090576;28;20050;-41
2023/02/23 09:46:28;;;;;;;;;;;;;;;14.19;50.02;99813.44;5090192;28;19920;-43
2023/02/23 09:48:55;;;;;;;;;;;;;;;13.78;50.99;99811.44;5087758;28;19964;-42
2023/02/23 09:51:22;;;;;;;;;;;;;;;13.62;51.61;99812.88;5090302;28;19912;-42
2023/02/23 09:53:55;;;;;;;;;;;;;;;13.62;51.65;99808.31;5090863;28;20291;-42
2023/02/23 09:56:42;;;;;;;;;;;;;;;13.77;51.32;99807.16;5090871;28;19912;-42
2023/02/23 09:59:12;;;;;;;;;;;;;;;14.57;49.90;99806.19;5091159;28;20407;-42
2023/02/23 10:01:40;;;;;;;;;;;;;;;14.41;49.61;99799.56;5090366;28;20002;-41
2023/02/23 10:04:10;;;;;;;;;;;;;;;13.58;51.70;99804.47;5090857;28;19916;-41
2023/02/23 10:06:37;;;;;;;;;;;;;;;14.02;50.66;99807.88;5090679;28;20398;-43
2023/02/23 10:09:15;;;;;;;;;;;;;;;13.92;51.25;99799.56;5090363;28;20396;-42
2023/02/23 10:11:50;;;;;;;;;;;;;;;14.55;48.91;99805.56;5090372;28;20535;-43
2023/02/23 10:14:32;;;;;;;;;;;;;;;14.44;49.26;99794.56;5090401;28;19985;-42
2023/02/23 10:17:26;;;;;;;;;;;;;;;14.42;48.75;99769.06;5090280;28;19912;-42
2023/02/23 10:19:57;;;;;;;;;;;;;;;14.60;49.31;99790.47;5085168;28;20007;-41
2023/02/23 10:22:24;;;;;;;;;;;;;;;14.88;48.80;99785.50;5090503;28;19912;-43
2023/02/23 10:24:59;;;;;;;;;;;;;;;14.82;48.28;99780.03;5090159;28;19920;-43
2023/02/23 10:27:28;;;;;;;;;;;;;;;15.09;47.53;99778.78;5090281;28;19969;-42
2023/02/23 10:29:54;;;;;;;;;;;;;;;14.87;47.95;99774.00;5089906;28;19912;-41
2023/02/23 10:32:46;;;;;;;;;;;;;;;14.99;47.69;99769.44;5090088;28;19912;-41
2023/02/23 10:35:12;;;;;;;;;;;;;;;14.83;46.67;99768.28;5092091;28;19923;-41
2023/02/23 10:37:38;;;;;;;;;;;;;;;14.51;48.66;99766.88;5093652;28;19912;-42
2023/02/23 10:40:04;;;;;;;;;;;;;;;14.96;48.09;99753.00;5093929;28;19912;-42
2023/02/23 10:42:30;;;;;;;;;;;;;;;15.18;47.49;99753.28;5093903;28;19916;-43
2023/02/23 10:44:57;;;;;;;;;;;;;;;14.89;47.85;99758.50;5093792;28;19998;-42
2023/02/23 10:47:27;;;;;;;;;;;;;;;14.84;48.04;99747.66;5093510;28;19912;-42
2023/02/23 10:49:54;;;;;;;;;;;;;;;15.11;47.81;99741.84;5093778;28;19922;-42
2023/02/23 10:52:23;;;;;;;;;;;;;;;15.36;47.72;99746.94;5094144;28;19916;-42
2023/02/23 10:54:49;;;;;;;;;;;;;;;15.06;48.37;99745.22;5093905;28;19920;-41
2023/02/23 10:57:40;;;;;;;;;;;;;;;14.85;48.55;99747.44;5094062;28;19939;-42
2023/02/23 11:00:15;;;;;;;;;;;;;;;14.84;48.83;99742.28;5093323;28;19919;-41
2023/02/23 11:02:41;;;;;;;;;;;;;;;14.75;48.83;99739.13;5093673;28;19919;-41
2023/02/23 11:05:08;;;;;;;;;;;;;;;15.02;47.77;99742.19;5093161;28;20007;-43
2023/02/23 11:07:33;;;;;;;;;;;;;;;15.41;46.99;99742.50;5093677;28;19912;-42
2023/02/23 11:10:18;;;;;;;;;;;;;;;15.04;47.88;99729.38;5093510;28;19961;-42
2023/02/23 11:12:44;;;;;;;;;;;;;;;15.43;46.74;99742.28;5093276;28;19999;-43
2023/02/23 11:15:24;;;;;;;;;;;;;;;14.65;48.67;99736.22;5093843;28;19991;-42
2023/02/23 11:17:59;;;;;;;;;;;;;;;14.97;48.14;99743.94;5093683;28;19960;-42
2023/02/23 11:20:29;;;;;;;;;;;;;;;15.33;47.45;99737.53;5093506;28;19967;-42
2023/02/23 11:22:56;;;;;;;;;;;;;;;15.28;47.14;99734.72;5093524;28;19962;-42
2023/02/23 11:25:26;;;;;;;;;;;;;;;15.37;46.99;99730.63;5093193;28;19940;-40
2023/02/23 11:27:55;;;;;;;;;;;;;;;15.16;47.04;99739.28;5093679;28;19923;-43
2023/02/23 11:30:24;;;;;;;;;;;;;;;14.97;47.53;99730.53;5093455;28;20003;-42
2023/02/23 11:32:53;;;;;;;;;;;;;;;15.00;47.92;99730.91;5093371;28;19912;-41
2023/02/23 11:35:18;;;;;;;;;;;;;;;14.82;48.92;99721.09;5093486;28;19958;-42
2023/02/23 11:37:44;;;;;;;;;;;;;;;15.05;48.53;99722.16;5093290;28;19944;-43
2023/02/23 11:40:20;;;;;;;;;;;;;;;15.42;47.99;99721.88;5093124;28;20410;-42
2023/02/23 11:42:53;;;;;;;;;;;;;;;14.83;49.41;99705.81;5092846;28;19916;-42
2023/02/23 11:45:19;;;;;;;;;;;;;;;15.23;48.83;99710.47;5091776;28;20011;-43
2023/02/23 11:47:49;;;;;;;;;;;;;;;15.58;48.10;99714.97;5093111;28;19912;-42
2023/02/23 11:50:21;;;;;;;;;;;;;;;15.05;48.82;99720.28;5093044;28;20014;-43
2023/02/23 11:52:48;;;;;;;;;;;;;;;15.34;48.32;99715.00;5092780;28;19912;-40
2023/02/23 11:55:17;;;;;;;;;;;;;;;15.54;48.21;99720.00;5093149;28;20348;-43
2023/02/23 11:57:43;;;;;;;;;;;;;;;15.35;49.16;99718.53;5093246;28;19912;-41
2023/02/23 12:00:12;;;;;;;;;;;;;;;15.08;50.21;99735.09;5093365;28;19990;-42
2023/02/23 12:02:54;;;;;;;;;;;;;;;14.44;52.16;99719.59;5092802;28;19919;-42
2023/02/23 12:05:24;;;;;;;;;;;;;;;14.64;51.85;99722.00;5092492;28;19916;-42
2023/02/23 12:07:54;;;;;;;;;;;;;;;14.96;50.10;99726.22;5092742;28;19912;-42
2023/02/23 12:10:20;;;;;;;;;;;;;;;14.73;50.96;99727.81;5092961;28;19912;-42
2023/02/23 12:13:04;;;;;;;;;;;;;;;14.63;50.83;99712.34;5092578;28;20240;-43
2023/02/23 12:15:29;;;;;;;;;;;;;;;15.25;49.14;99713.75;5092734;28;19923;-42
2023/02/23 12:17:58;;;;;;;;;;;;;;;15.15;48.63;99727.72;5092728;28;20327;-41
2023/02/23 12:20:29;;;;;;;;;;;;;;;14.64;50.94;99726.53;5092355;28;20259;-42
2023/02/23 12:22:58;;;;;;;;;;;;;;;14.55;52.42;99722.53;5092375;28;20030;-42
2023/02/23 12:25:29;;;;;;;;;;;;;;;14.61;52.45;99740.41;5091920;28;19927;-42
2023/02/23 12:28:05;;;;;;;;;;;;;;;14.23;53.09;99728.97;5092348;28;19912;-42
2023/02/23 12:30:42;;;;;;;;;;;;;;;14.30;54.28;99728.03;5092422;28;19912;-41
2023/02/23 12:33:14;;;;;;;;;;;;;;;14.55;53.95;99744.78;5092458;28;19919;-43
2023/02/23 12:35:39;;;;;;;;;;;;;;;13.99;56.03;99736.09;5091819;28;19923;-42
2023/02/23 12:38:05;;;;;;;;;;;;;;;13.94;55.91;99727.94;5092171;28;19919;-42
2023/02/23 12:40:36;;;;;;;;;;;;;;;13.95;56.29;99729.53;5092189;28;20468;-43
2023/02/23 12:43:02;;;;;;;;;;;;;;;14.02;56.39;99726.81;5091978;28;19939;-42
2023/02/23 12:45:30;;;;;;;;;;;;;;;14.44;55.12;99741.00;5091893;28;19974;-43
2023/02/23 12:48:14;;;;;;;;;;;;;;;14.41;55.27;99729.94;5092038;28;19924;-43
2023/02/23 12:50:51;;;;;;;;;;;;;;;14.52;55.24;99742.53;5092101;28;19912;-42
2023/02/23 12:53:22;;;;;;;;;;;;;;;14.54;55.52;99761.88;5092299;28;19916;-42
2023/02/23 12:56:07;;;;;;;;;;;;;;;14.05;55.70;99745.06;5091880;28;19912;-43
2023/02/23 12:58:39;;;;;;;;;;;;;;;13.67;57.20;99746.97;5080173;28;19919;-42
2023/02/23 13:01:23;;;;;;;;;;;;;;;13.70;57.52;99740.34;5091515;28;20311;-44
2023/02/23 13:04:00;;;;;;;;;;;;;;;14.18;56.89;99746.75;5091544;28;20003;-42
2023/02/23 13:06:29;;;;;;;;;;;;;;;14.56;55.59;99749.06;5091590;28;20319;-42
2023/02/23 13:09:02;;;;;;;;;;;;;;;14.20;56.29;99756.19;5091669;28;20298;-42
2023/02/23 13:11:46;;;;;;;;;;;;;;;14.17;57.21;99747.81;5091900;28;20280;-42
2023/02/23 13:14:16;;;;;;;;;;;;;;;14.01;57.72;99744.72;5091638;28;19927;-42
2023/02/23 13:16:45;;;;;;;;;;;;;;;13.22;60.48;99755.22;5091414;28;19916;-42
2023/02/23 13:19:14;;;;;;;;;;;;;;;13.66;59.89;99752.53;5091327;28;19916;-42
2023/02/23 13:21:52;;;;;;;;;;;;;;;13.82;59.37;99745.75;5091231;28;19926;-43
2023/02/23 13:24:18;;;;;;;;;;;;;;;13.65;59.31;99750.91;5091111;28;19990;-42
2023/02/23 13:27:02;;;;;;;;;;;;;;;13.22;60.92;99757.91;5091140;28;20369;-41
2023/02/23 13:29:34;;;;;;;;;;;;;;;13.13;61.34;99747.72;5091016;28;20354;-42
2023/02/23 13:32:01;;;;;;;;;;;;;;;12.81;62.90;99777.16;5091286;28;20394;-41
2023/02/23 13:34:34;;;;;;;;;;;;;;;12.77;62.80;99771.44;5091315;28;19916;-43
2023/02/23 13:37:02;;;;;;;;;;;;;;;12.72;62.88;99760.59;5091344;28;19930;-42
2023/02/23 13:39:36;;;;;;;;;;;;;;;12.48;63.83;99765.69;5090899;28;20371;-42
2023/02/23 13:42:13;;;;;;;;;;;;;;;12.43;64.45;99760.19;5090987;28;19924;-42
2023/02/23 13:45:08;;;;;;;;;;;;;;;12.35;65.15;99771.09;5090520;28;19951;-44
2023/02/23 13:47:45;;;;;;;;;;;;;;;12.70;64.43;99770.69;5088762;28;19920;-42
2023/02/23 13:50:27;;;;;;;;;;;;;;;12.39;65.43;99782.16;5090750;28;20374;-44
2023/02/23 13:52:57;;;;;;;;;;;;;;;11.91;67.96;99776.22;5090516;28;19965;-43
2023/02/23 13:55:25;;;;;;;;;;;;;;;12.31;66.05;99773.38;5090830;28;19914;-44
2023/02/23 13:58:02;;;;;;;;;;;;;;;12.45;65.72;99770.63;5090770;28;19912;-43
2023/02/23 14:00:28;;;;;;;;;;;;;;;12.04;66.74;99770.03;5090754;28;19955;-43
2023/02/23 14:02:54;;;;;;;;;;;;;;;11.83;68.10;99778.31;5091063;28;19919;-43
2023/02/23 14:05:24;;;;;;;;;;;;;;;11.84;68.37;99793.25;5090807;28;19986;-42
2023/02/23 14:08:01;;;;;;;;;;;;;;;11.66;68.20;99778.75;5091133;28;19912;-43
2023/02/23 14:10:35;;;;;;;;;;;;;;;12.03;67.45;99783.56;5095711;28;19954;-43
2023/02/23 14:13:07;;;;;;;;;;;;;;;11.81;68.00;99793.69;5094937;28;19916;-45
2023/02/23 14:15:36;;;;;;;;;;;;;;;11.85;68.24;99787.72;5095113;28;19923;-43
2023/02/23 14:18:24;;;;;;;;;;;;;;;11.52;69.32;99785.16;5095036;28;20308;-43